Time;durP1;ratioP1;P1;durP2;ratioP2;P2;SDS_P1;SDS_P2;PMS_P1;PMS_P2;Temp;Humidity;BMP_temperature;BMP_pressure;BME280_temperature;BME280_humidity;BME280_pressure;Samples;Min_cycle;Max_cycle;Signal;HPM_P1;HPM_P2
2021/03/25 00:03:31;;;;;;;77.25;63.50;;;20.70;45.60;;;;;;4337595;64;21600;-29
2021/03/25 00:08:33;;;;;;;75.72;61.80;;;20.70;45.50;;;;;;4370430;60;21239;-30
2021/03/25 00:13:34;;;;;;;74.57;63.03;;;20.70;45.60;;;;;;4344107;60;21111;-31
2021/03/25 00:18:36;;;;;;;73.75;60.25;;;20.60;45.40;;;;;;4366852;60;21190;-30
2021/03/25 00:23:38;;;;;;;74.97;61.17;;;20.70;45.50;;;;;;4337018;64;21060;-26
2021/03/25 00:28:39;;;;;;;72.95;60.72;;;20.70;45.40;;;;;;4392717;60;21076;-27
2021/03/25 00:33:39;;;;;;;72.10;61.28;;;20.70;45.40;;;;;;4344907;60;21557;-28
2021/03/25 00:38:40;;;;;;;71.15;59.08;;;20.70;45.40;;;;;;4343996;60;21060;-20
2021/03/25 00:43:41;;;;;;;68.65;57.10;;;20.70;45.40;;;;;;4337970;64;21043;-32
2021/03/25 00:48:42;;;;;;;69.57;58.00;;;20.70;45.40;;;;;;4337598;64;21135;-33
2021/03/25 00:53:43;;;;;;;67.15;56.53;;;20.70;45.30;;;;;;4337513;60;21626;-32
2021/03/25 00:58:44;;;;;;;71.40;59.13;;;20.70;45.30;;;;;;4350628;60;21199;-33
2021/03/25 01:03:45;;;;;;;69.75;59.03;;;20.70;45.30;;;;;;4350729;60;21569;-26
2021/03/25 01:08:45;;;;;;;66.82;56.65;;;20.60;45.80;;;;;;4350783;60;21095;-32
2021/03/25 01:13:50;;;;;;;70.15;57.80;;;20.60;45.20;;;;;;4343919;60;21649;-30
2021/03/25 01:18:51;;;;;;;70.70;55.22;;;20.60;45.20;;;;;;4363122;60;21112;-14
2021/03/25 01:23:56;;;;;;;67.10;55.35;;;20.60;45.20;;;;;;4384547;60;21137;-33
2021/03/25 01:29:00;;;;;;;67.47;55.88;;;20.60;45.10;;;;;;4345950;60;21606;-29
2021/03/25 01:34:01;;;;;;;66.60;55.42;;;20.60;45.10;;;;;;4338905;60;21606;-33
2021/03/25 01:39:03;;;;;;;64.18;53.28;;;20.60;45.10;;;;;;4345061;60;21078;-15
2021/03/25 01:44:09;;;;;;;65.30;54.15;;;20.60;45.10;;;;;;4358087;60;21142;-22
2021/03/25 01:49:17;;;;;;;65.78;53.58;;;20.60;45.10;;;;;;4394948;60;21176;-31
2021/03/25 01:56:28;;;;;;;64.80;55.28;;;20.60;45.10;;;;;;4343142;60;21558;-32
2021/03/25 02:04:26;;;;;;;64.18;54.05;;;20.60;45.00;;;;;;4337495;60;21194;-14
2021/03/25 02:10:00;;;;;;;65.12;53.50;;;20.60;45.00;;;;;;4368648;60;21582;-21
2021/03/25 02:15:18;;;;;;;60.45;51.15;;;20.60;44.90;;;;;;4357529;60;21103;-30
2021/03/25 02:22:14;;;;;;;62.25;51.30;;;20.60;44.90;;;;;;4345255;60;21139;-13
2021/03/25 02:29:22;;;;;;;61.67;51.33;;;20.60;44.80;;;;;;4348660;60;21123;-33
2021/03/25 02:34:28;;;;;;;60.22;50.50;;;20.50;44.80;;;;;;4348125;60;21634;-18
2021/03/25 02:40:09;;;;;;;63.45;52.10;;;20.60;44.80;;;;;;4362053;60;21170;-30
2021/03/25 02:45:27;;;;;;;60.55;50.35;;;20.60;44.80;;;;;;4374296;60;22080;-31
2021/03/25 02:50:38;;;;;;;60.55;50.05;;;20.50;44.70;;;;;;4341539;60;21157;-21
2021/03/25 02:55:39;;;;;;;59.20;49.13;;;20.50;44.70;;;;;;4359248;60;21101;-32
2021/03/25 03:01:07;;;;;;;60.35;50.08;;;20.50;44.70;;;;;;4358243;60;21107;-31
2021/03/25 03:06:16;;;;;;;56.70;48.17;;;20.50;44.70;;;;;;4366226;60;21105;-30
2021/03/25 03:11:26;;;;;;;55.88;47.10;;;20.50;44.60;;;;;;4341866;60;21071;-27
2021/03/25 03:16:44;;;;;;;57.38;47.17;;;20.50;44.60;;;;;;4354198;60;21063;-29
2021/03/25 03:21:50;;;;;;;59.38;47.50;;;20.50;44.60;;;;;;4343979;60;21067;-28
2021/03/25 03:27:06;;;;;;;56.08;47.17;;;20.50;44.60;;;;;;4359487;60;21104;-24
2021/03/25 03:33:04;;;;;;;55.97;46.45;;;20.50;44.60;;;;;;4338710;60;21524;-11
2021/03/25 03:38:11;;;;;;;54.95;45.63;;;20.50;44.60;;;;;;4344290;60;21620;-29
2021/03/25 03:43:14;;;;;;;56.22;47.25;;;20.50;44.50;;;;;;4358580;60;21067;-31
2021/03/25 03:48:25;;;;;;;57.03;46.70;;;20.50;44.50;;;;;;4336923;61;21055;-26
2021/03/25 03:53:28;;;;;;;53.75;45.08;;;20.50;45.00;;;;;;4346875;60;21163;-29
2021/03/25 03:58:39;;;;;;;54.20;45.47;;;20.50;44.50;;;;;;4339605;60;21059;-16
2021/03/25 04:03:45;;;;;;;51.90;44.35;;;20.50;44.50;;;;;;4348443;60;21136;-14
2021/03/25 04:09:05;;;;;;;52.38;43.63;;;20.40;44.40;;;;;;4368344;60;21075;-31
2021/03/25 04:14:10;;;;;;;54.35;44.70;;;20.50;44.40;;;;;;4338462;60;21055;-32
2021/03/25 04:19:19;;;;;;;53.85;45.80;;;20.50;44.40;;;;;;4353663;60;21060;-32
2021/03/25 04:24:28;;;;;;;55.85;45.55;;;20.50;44.40;;;;;;4392934;60;21597;-32
2021/03/25 04:29:37;;;;;;;52.33;44.30;;;20.40;44.30;;;;;;4382413;60;21077;-28
2021/03/25 04:34:38;;;;;;;49.35;41.53;;;20.50;44.30;;;;;;4337523;61;21140;-32
2021/03/25 04:39:40;;;;;;;49.80;41.88;;;20.40;44.20;;;;;;4407328;60;21120;-14
2021/03/25 04:44:48;;;;;;;51.42;43.60;;;20.40;44.20;;;;;;4370079;60;21179;-14
2021/03/25 04:50:36;;;;;;;53.25;43.95;;;20.40;44.10;;;;;;4337271;64;21103;-31
2021/03/25 04:55:39;;;;;;;50.00;41.67;;;20.40;44.10;;;;;;4393712;60;21067;-29
2021/03/25 05:00:42;;;;;;;51.33;41.72;;;20.40;44.10;;;;;;4336618;64;21596;-32
2021/03/25 05:05:43;;;;;;;50.88;42.33;;;20.40;44.10;;;;;;4343528;60;21076;-25
2021/03/25 05:11:04;;;;;;;50.78;41.42;;;20.40;44.00;;;;;;4373302;60;21570;-33
2021/03/25 05:17:04;;;;;;;51.50;41.90;;;20.40;44.10;;;;;;4373394;60;21083;-19
2021/03/25 05:23:33;;;;;;;51.05;41.75;;;20.40;44.10;;;;;;4352068;60;21075;-33
2021/03/25 05:28:43;;;;;;;50.38;40.83;;;20.40;44.00;;;;;;4373649;60;21036;-33
2021/03/25 05:33:53;;;;;;;48.10;38.80;;;20.40;44.10;;;;;;4370255;60;21048;-24
2021/03/25 05:38:54;;;;;;;49.22;40.70;;;20.40;44.10;;;;;;4344841;60;21045;-29
2021/03/25 05:48:42;;;;;;;48.47;39.88;;;20.40;44.00;;;;;;4337659;60;21286;-29
2021/03/25 05:54:11;;;;;;;46.65;37.63;;;20.40;44.00;;;;;;4342669;60;21698;-14
2021/03/25 05:59:16;;;;;;;48.65;38.85;;;20.40;44.20;;;;;;4339735;60;21146;-29
2021/03/25 06:04:29;;;;;;;48.75;38.63;;;20.40;44.30;;;;;;4357041;60;21067;-12
2021/03/25 06:09:51;;;;;;;46.80;37.88;;;20.40;44.30;;;;;;4345524;60;21155;-29
2021/03/25 06:15:40;;;;;;;46.50;37.78;;;20.40;44.40;;;;;;4342597;60;21131;-27
2021/03/25 06:22:22;;;;;;;45.53;37.20;;;20.40;44.40;;;;;;4354794;60;21164;-25
2021/03/25 06:28:00;;;;;;;50.28;39.55;;;20.40;44.40;;;;;;4368454;60;21084;-27
2021/03/25 06:33:47;;;;;;;46.37;38.13;;;20.40;44.40;;;;;;4359891;60;21127;-26
2021/03/25 06:38:58;;;;;;;46.17;36.93;;;20.40;44.40;;;;;;4363910;60;21066;-33
2021/03/25 06:44:27;;;;;;;46.70;37.17;;;20.40;44.30;;;;;;4348721;60;21358;-20
2021/03/25 06:49:45;;;;;;;46.53;37.88;;;20.40;44.30;;;;;;4389585;60;21087;-27
2021/03/25 06:54:46;;;;;;;49.97;39.80;;;20.30;44.20;;;;;;4352079;60;21190;-32
2021/03/25 06:59:48;;;;;;;49.67;39.35;;;20.30;44.20;;;;;;4336790;64;21140;-33
2021/03/25 07:04:52;;;;;;;48.80;39.17;;;20.40;44.20;;;;;;4337678;64;21067;-15
2021/03/25 07:09:53;;;;;;;53.17;41.72;;;20.30;44.10;;;;;;4379916;60;21064;-32
2021/03/25 07:14:54;;;;;;;55.12;42.40;;;20.40;44.10;;;;;;4359046;60;21530;-27
2021/03/25 07:19:56;;;;;;;52.35;41.65;;;20.30;44.10;;;;;;4358803;60;21136;-29
2021/03/25 07:25:19;;;;;;;52.62;41.25;;;20.30;44.70;;;;;;4373673;60;21116;-30
2021/03/25 07:30:22;;;;;;;53.33;42.72;;;20.40;44.00;;;;;;4352123;60;21152;-29
2021/03/25 07:35:38;;;;;;;56.63;44.53;;;20.30;44.00;;;;;;4350266;60;21135;-31
2021/03/25 07:40:39;;;;;;;59.83;44.45;;;20.30;44.00;;;;;;4347548;60;21176;-16
2021/03/25 07:45:40;;;;;;;60.88;45.15;;;20.30;44.00;;;;;;4336879;64;21682;-28
2021/03/25 07:50:42;;;;;;;57.50;44.78;;;20.30;43.90;;;;;;4347624;60;21155;-33
2021/03/25 07:55:43;;;;;;;56.55;43.67;;;20.30;43.90;;;;;;4347511;60;21569;-29
2021/03/25 08:00:44;;;;;;;58.10;45.15;;;20.30;43.90;;;;;;4398836;60;21130;-19
2021/03/25 08:05:48;;;;;;;65.25;48.40;;;20.30;43.90;;;;;;4385952;60;21143;-29
2021/03/25 08:10:51;;;;;;;60.70;46.70;;;20.30;44.00;;;;;;4336347;64;21103;-26
2021/03/25 08:16:11;;;;;;;64.18;48.20;;;20.50;44.40;;;;;;4362459;60;21071;-17
2021/03/25 08:21:38;;;;;;;63.42;48.60;;;20.60;44.50;;;;;;4348806;60;21586;-27
2021/03/25 08:27:07;;;;;;;65.45;50.33;;;20.80;44.60;;;;;;4372079;60;21094;-28
2021/03/25 08:35:14;;;;;;;60.90;48.20;;;20.90;44.60;;;;;;4383230;60;21111;-31
2021/03/25 08:40:25;;;;;;;66.95;52.25;;;21.10;44.80;;;;;;4345625;60;21063;-18
2021/03/25 08:45:39;;;;;;;64.43;51.10;;;21.20;44.90;;;;;;4337805;61;21059;-26
2021/03/25 08:51:06;;;;;;;66.07;51.80;;;21.30;44.90;;;;;;4343294;60;21154;-25
2021/03/25 08:56:26;;;;;;;;;;;21.40;45.00;;;;;;4385029;60;21098;-26
2021/03/25 09:01:38;;;;;;;67.75;53.03;;;21.50;45.10;;;;;;4356025;60;20547;-30
2021/03/25 09:06:44;;;;;;;71.15;54.85;;;21.50;45.00;;;;;;4356362;60;21055;-20
2021/03/25 09:11:45;;;;;;;73.45;55.63;;;21.50;44.90;;;;;;4341256;60;21151;-25
2021/03/25 09:16:46;;;;;;;73.15;57.15;;;21.60;44.80;;;;;;4352319;60;21565;-26
2021/03/25 09:21:49;;;;;;;77.12;57.95;;;21.60;44.70;;;;;;4390553;60;21155;-25
2021/03/25 09:27:02;;;;;;;82.93;60.78;;;21.70;44.60;;;;;;4336836;64;21581;-24
2021/03/25 09:32:36;;;;;;;84.10;62.47;;;21.70;44.50;;;;;;4353231;60;21566;-31
2021/03/25 09:37:38;;;;;;;86.37;63.67;;;21.70;44.50;;;;;;4370239;60;21095;-15
2021/03/25 09:42:40;;;;;;;89.07;67.37;;;21.80;44.70;;;;;;4337315;64;22438;-18
2021/03/25 09:47:42;;;;;;;84.78;67.07;;;21.80;44.80;;;;;;4401543;60;21113;-19
2021/03/25 09:53:16;;;;;;;86.90;67.87;;;21.80;44.80;;;;;;4356451;60;21218;-16
2021/03/25 09:58:41;;;;;;;92.25;67.85;;;21.90;45.00;;;;;;4346870;60;21609;-17
2021/03/25 10:04:22;;;;;;;91.35;70.05;;;21.90;45.10;;;;;;4357931;60;21059;-18
2021/03/25 10:10:04;;;;;;;89.05;69.57;;;22.00;45.20;;;;;;4337207;64;21120;-16
2021/03/25 10:15:42;;;;;;;91.93;71.20;;;22.00;45.20;;;;;;4337427;64;21167;-16
2021/03/25 10:22:34;;;;;;;;;;;22.10;45.30;;;;;;4352899;60;21574;-21
2021/03/25 10:27:41;;;;;;;96.57;74.28;;;22.10;45.30;;;;;;4337093;64;20384;-28
2021/03/25 10:32:45;;;;;;;95.28;75.32;;;22.20;45.40;;;;;;4342638;60;21132;-17
2021/03/25 10:37:52;;;;;;;94.25;75.47;;;22.20;45.40;;;;;;4353635;60;21056;-24
2021/03/25 10:43:02;;;;;;;99.13;77.85;;;22.20;45.40;;;;;;4351719;60;21151;-28
2021/03/25 10:48:13;;;;;;;97.72;78.07;;;22.30;45.40;;;;;;4338442;60;21085;-15
2021/03/25 10:53:19;;;;;;;97.95;76.87;;;22.30;45.40;;;;;;4340121;60;21118;-19
2021/03/25 10:58:41;;;;;;;98.70;77.68;;;22.30;45.40;;;;;;4336823;64;21055;-25
2021/03/25 11:03:42;;;;;;;97.70;78.22;;;22.30;45.40;;;;;;4351825;60;21120;-20
2021/03/25 11:08:43;;;;;;;102.68;81.28;;;22.40;45.40;;;;;;4347487;60;21095;-21
2021/03/25 11:13:55;;;;;;;100.62;81.18;;;22.40;45.40;;;;;;4400430;60;21071;-17
2021/03/25 11:19:08;;;;;;;101.38;79.60;;;22.40;45.40;;;;;;4404454;60;21181;-31
2021/03/25 11:24:27;;;;;;;102.68;80.75;;;22.40;45.40;;;;;;4344625;60;21194;-29
2021/03/25 11:29:39;;;;;;;101.15;81.65;;;22.50;45.50;;;;;;4404340;60;21106;-28
2021/03/25 11:34:42;;;;;;;103.18;80.82;;;22.50;45.40;;;;;;4342754;60;21093;-26
2021/03/25 11:43:19;;;;;;;105.93;83.60;;;22.50;45.40;;;;;;4345255;60;21083;-24
2021/03/25 11:48:34;;;;;;;105.90;82.93;;;22.60;45.50;;;;;;4344342;60;21068;-18
2021/03/25 11:53:39;;;;;;;107.12;84.97;;;22.60;45.50;;;;;;4348570;60;21177;-22
2021/03/25 11:58:50;;;;;;;104.18;83.57;;;22.60;45.50;;;;;;4360152;60;21075;-31
2021/03/25 12:03:59;;;;;;;106.35;87.10;;;22.60;45.50;;;;;;4352354;60;21557;-28
2021/03/25 12:09:13;;;;;;;107.43;85.93;;;22.60;45.40;;;;;;4336901;61;21525;-20
2021/03/25 12:14:15;;;;;;;109.40;86.85;;;22.70;45.60;;;;;;4339425;60;21110;-20
2021/03/25 12:19:16;;;;;;;111.07;87.93;;;22.70;45.50;;;;;;4336226;64;21137;-31
2021/03/25 12:24:17;;;;;;;112.60;89.20;;;22.70;45.50;;;;;;4344540;60;21595;-19
2021/03/25 12:29:18;;;;;;;110.70;88.55;;;22.70;45.50;;;;;;4401659;60;21602;-29
2021/03/25 12:34:21;;;;;;;113.85;90.05;;;22.70;45.50;;;;;;4337799;60;21091;-28
2021/03/25 12:39:22;;;;;;;108.07;85.50;;;22.70;45.50;;;;;;4341562;60;21584;-20
2021/03/25 12:44:22;;;;;;;107.70;86.60;;;22.70;45.50;;;;;;4366273;60;21103;-26
2021/03/25 12:49:23;;;;;;;109.25;85.70;;;22.70;45.40;;;;;;4372441;60;21597;-25
2021/03/25 12:58:05;;;;;;;104.32;83.72;;;22.80;45.00;;;;;;4790100;54;27969;-19
2021/03/25 13:03:07;;;;;;;103.93;84.00;;;22.80;45.50;;;;;;4770373;54;21085;-33
2021/03/25 13:08:09;;;;;;;108.60;84.93;;;22.80;45.80;;;;;;4743130;55;21527;-30
2021/03/25 13:13:10;;;;;;;107.57;85.55;;;22.80;45.50;;;;;;4825824;55;21536;-26
2021/03/25 13:18:12;;;;;;;107.63;86.80;;;22.70;45.30;;;;;;4773821;55;21536;-23
2021/03/25 13:23:13;;;;;;;111.78;89.18;;;22.80;45.30;;;;;;4747556;55;21480;-29
2021/03/25 13:28:16;;;;;;;110.28;88.78;;;22.70;45.10;;;;;;4747568;55;21013;-29
2021/03/25 13:33:17;;;;;;;112.22;90.12;;;22.70;45.20;;;;;;4741868;57;20997;-27
2021/03/25 13:38:19;;;;;;;115.03;92.12;;;22.70;45.20;;;;;;4825309;55;21075;-19
2021/03/25 13:43:32;;;;;;;111.80;91.30;;;22.70;45.30;;;;;;4742428;58;21009;-29
2021/03/25 13:48:33;;;;;;;119.97;92.95;;;22.60;45.30;;;;;;4760611;55;21073;-24
2021/03/25 13:53:34;;;;;;;115.97;92.95;;;22.60;45.40;;;;;;4739039;55;21628;-24
2021/03/25 13:58:35;;;;;;;114.10;91.57;;;22.50;45.40;;;;;;4796502;55;21021;-23
2021/03/25 14:03:36;;;;;;;113.12;90.32;;;22.50;45.50;;;;;;4750204;55;21531;-28
2021/03/25 14:08:36;;;;;;;112.37;91.30;;;22.40;45.50;;;;;;4748589;55;21085;-22
2021/03/25 14:13:38;;;;;;;112.32;89.03;;;22.40;45.60;;;;;;4748201;55;21006;-27
2021/03/25 14:18:39;;;;;;;114.60;90.10;;;22.40;45.70;;;;;;4782749;55;21481;-27
2021/03/25 14:23:40;;;;;;;112.25;88.37;;;22.30;45.70;;;;;;4762135;55;21022;-18
2021/03/25 14:28:41;;;;;;;111.07;87.00;;;22.30;45.80;;;;;;4752421;55;21037;-16
2021/03/25 14:33:42;;;;;;;113.57;90.28;;;22.30;45.80;;;;;;4737556;56;21074;-24
2021/03/25 14:38:43;;;;;;;109.68;87.62;;;22.30;45.90;;;;;;4755883;55;21081;-28
2021/03/25 14:43:44;;;;;;;106.78;88.03;;;22.20;45.90;;;;;;4738049;55;21541;-29
2021/03/25 14:48:45;;;;;;;114.05;88.37;;;22.20;45.90;;;;;;4748664;55;21089;-19
2021/03/25 14:53:45;;;;;;;107.68;87.50;;;22.20;46.00;;;;;;4796410;55;20997;-16
2021/03/25 14:58:46;;;;;;;112.95;87.03;;;22.20;46.00;;;;;;4776038;55;21560;-25
2021/03/25 15:03:47;;;;;;;108.68;87.95;;;22.10;46.00;;;;;;4754182;55;21504;-24
2021/03/25 15:08:48;;;;;;;106.47;87.65;;;22.10;46.00;;;;;;4737921;59;21140;-27
2021/03/25 15:13:49;;;;;;;104.78;86.63;;;22.10;46.10;;;;;;4750623;55;21057;-21
2021/03/25 15:18:50;;;;;;;107.37;87.05;;;22.10;46.10;;;;;;4793582;55;20990;-32
2021/03/25 15:23:51;;;;;;;106.37;86.32;;;22.10;46.10;;;;;;4740916;55;21472;-21
2021/03/25 15:28:52;;;;;;;105.90;84.62;;;22.10;46.20;;;;;;4780766;55;21054;-17
2021/03/25 15:33:53;;;;;;;110.35;88.70;;;22.10;46.20;;;;;;4737977;56;21520;-31
2021/03/25 15:38:57;;;;;;;111.37;88.82;;;22.00;46.20;;;;;;4772895;55;20998;-27
2021/03/25 15:43:58;;;;;;;107.63;86.60;;;22.00;46.20;;;;;;4792287;55;21441;-28
2021/03/25 15:48:59;;;;;;;113.47;92.60;;;22.00;46.20;;;;;;4755674;55;21018;-22
2021/03/25 15:54:00;;;;;;;116.45;91.00;;;22.00;46.10;;;;;;4756692;55;21041;-32
2021/03/25 15:59:01;;;;;;;108.78;90.68;;;22.00;46.10;;;;;;4772415;55;21524;-22
2021/03/25 16:04:02;;;;;;;114.37;89.30;;;22.00;46.10;;;;;;4766352;55;21268;-24
2021/03/25 16:09:04;;;;;;;119.00;92.72;;;21.90;46.10;;;;;;4749214;55;20985;-29
2021/03/25 16:14:05;;;;;;;120.45;96.70;;;21.90;46.10;;;;;;4798073;55;21042;-26
2021/03/25 16:19:06;;;;;;;123.35;96.63;;;21.80;46.00;;;;;;4763092;55;21476;-27
2021/03/25 16:24:08;;;;;;;118.28;94.00;;;21.80;45.90;;;;;;4741891;55;21050;-29
2021/03/25 16:29:08;;;;;;;120.05;95.00;;;21.70;45.90;;;;;;4738361;55;21021;-28
2021/03/25 16:34:09;;;;;;;124.18;96.07;;;21.70;45.90;;;;;;4738002;59;21081;-31
2021/03/25 16:39:10;;;;;;;123.20;97.45;;;21.70;45.90;;;;;;4748667;55;21060;-22
2021/03/25 16:44:11;;;;;;;118.35;96.50;;;21.70;45.90;;;;;;4737326;59;21500;-19
2021/03/25 16:49:12;;;;;;;123.85;99.40;;;21.60;45.80;;;;;;4749685;55;21018;-26
2021/03/25 16:54:13;;;;;;;122.53;97.80;;;21.60;45.80;;;;;;4766343;55;21003;-24
2021/03/25 16:59:13;;;;;;;122.10;96.75;;;21.60;45.80;;;;;;4761443;55;21487;-24
2021/03/25 17:04:14;;;;;;;125.18;99.65;;;21.50;45.70;;;;;;4777722;55;21469;-28
2021/03/25 17:09:15;;;;;;;122.87;99.65;;;21.50;45.70;;;;;;4742243;55;21034;-23
2021/03/25 17:14:16;;;;;;;124.07;99.43;;;21.50;45.70;;;;;;4740200;55;21053;-26
2021/03/25 17:19:17;;;;;;;126.05;100.45;;;21.40;45.60;;;;;;4808373;55;21002;-23
2021/03/25 17:24:19;;;;;;;129.87;105.63;;;21.40;45.60;;;;;;4749435;55;21010;-26
2021/03/25 17:29:20;;;;;;;126.40;100.30;;;21.40;45.60;;;;;;4739777;55;21551;-27
2021/03/25 17:34:21;;;;;;;127.72;102.57;;;21.40;45.60;;;;;;4739062;55;21093;-27
2021/03/25 17:39:22;;;;;;;121.95;97.20;;;21.40;45.50;;;;;;4750700;55;21457;-28
2021/03/25 17:44:22;;;;;;;126.85;102.20;;;21.40;45.50;;;;;;4758014;55;21057;-28
2021/03/25 17:49:23;;;;;;;125.95;98.95;;;21.40;45.60;;;;;;4753585;55;21079;-26
2021/03/25 17:54:24;;;;;;;124.00;100.30;;;21.30;45.40;;;;;;4742420;55;21523;-24
2021/03/25 17:59:25;;;;;;;122.53;99.75;;;21.30;45.40;;;;;;4757044;55;21037;-25
2021/03/25 18:04:26;;;;;;;122.75;100.22;;;21.30;45.40;;;;;;4745918;55;21117;-23
2021/03/25 18:09:27;;;;;;;131.18;104.72;;;21.30;45.50;;;;;;4752868;55;21010;-24
2021/03/25 18:14:28;;;;;;;128.05;103.55;;;21.30;45.40;;;;;;4758146;55;21085;-21
2021/03/25 18:19:28;;;;;;;130.07;101.95;;;21.30;45.40;;;;;;4738620;55;21021;-23
2021/03/25 18:24:29;;;;;;;126.65;103.40;;;21.20;45.30;;;;;;4819801;55;21070;-21
2021/03/25 18:29:30;;;;;;;127.70;101.93;;;21.20;45.30;;;;;;4784494;55;21695;-29
2021/03/25 18:34:32;;;;;;;124.30;102.28;;;21.20;45.30;;;;;;4738019;59;21034;-24
2021/03/25 18:39:33;;;;;;;129.87;104.87;;;21.20;45.30;;;;;;4757906;55;20998;-26
2021/03/25 18:44:35;;;;;;;130.80;104.28;;;21.20;45.30;;;;;;4741390;55;21073;-25
2021/03/25 18:49:36;;;;;;;124.28;102.32;;;21.20;45.20;;;;;;4757601;55;21602;-19
2021/03/25 18:54:37;;;;;;;131.45;106.00;;;21.20;45.20;;;;;;4737642;55;21082;-25
2021/03/25 18:59:39;;;;;;;129.02;106.15;;;21.20;45.20;;;;;;4739197;55;21022;-28
2021/03/25 19:04:40;;;;;;;130.05;106.05;;;21.10;45.10;;;;;;4760888;55;21488;-21
2021/03/25 19:09:41;;;;;;;135.48;109.28;;;21.10;45.20;;;;;;4741487;55;21125;-30
2021/03/25 19:14:42;;;;;;;135.25;105.32;;;21.10;45.10;;;;;;4754079;55;21504;-19
2021/03/25 19:19:43;;;;;;;130.70;106.60;;;21.10;45.10;;;;;;4745701;55;21014;-23
2021/03/25 19:24:44;;;;;;;130.77;107.05;;;21.10;45.10;;;;;;4809261;55;21519;-25
2021/03/25 19:29:45;;;;;;;131.25;105.85;;;21.10;45.10;;;;;;4745174;55;20970;-20
2021/03/25 19:34:46;;;;;;;130.12;105.12;;;21.10;45.10;;;;;;4758523;55;21077;-24
2021/03/25 19:39:47;;;;;;;136.07;111.12;;;21.10;45.20;;;;;;4796622;55;21078;-28
2021/03/25 19:44:50;;;;;;;132.87;109.85;;;21.10;45.10;;;;;;4771017;55;21520;-23
2021/03/25 19:49:54;;;;;;;133.40;110.43;;;21.10;45.10;;;;;;4758381;55;21126;-31
2021/03/25 19:54:55;;;;;;;132.75;108.53;;;21.10;45.10;;;;;;4745098;55;21487;-32
2021/03/25 19:59:56;;;;;;;129.45;108.55;;;21.10;45.10;;;;;;4753763;55;21034;-15
2021/03/25 20:04:56;;;;;;;128.27;104.40;;;21.10;45.10;;;;;;4804895;55;21453;-24
2021/03/25 20:09:57;;;;;;;131.65;106.85;;;21.00;45.10;;;;;;4737698;56;21006;-20
2021/03/25 20:14:58;;;;;;;130.00;104.75;;;21.10;45.20;;;;;;4738698;55;22152;-25
2021/03/25 20:19:59;;;;;;;132.43;105.28;;;21.00;45.00;;;;;;4754379;55;21002;-25
2021/03/25 20:25:00;;;;;;;129.02;103.20;;;21.00;45.10;;;;;;4742838;55;21472;-26
2021/03/25 20:30:01;;;;;;;137.07;110.82;;;21.00;45.00;;;;;;4738344;55;21097;-22
2021/03/25 20:35:03;;;;;;;127.22;104.85;;;21.00;45.00;;;;;;4779910;55;21098;-17
2021/03/25 20:40:07;;;;;;;127.40;100.50;;;21.00;45.00;;;;;;4737899;55;21121;-22
2021/03/25 20:45:14;;;;;;;126.25;103.87;;;21.00;45.00;;;;;;4797753;55;20974;-26
2021/03/25 20:50:17;;;;;;;128.07;104.22;;;21.00;45.00;;;;;;4738576;55;21070;-18
2021/03/25 20:55:22;;;;;;;126.60;102.30;;;21.00;45.00;;;;;;4752963;55;20982;-18
2021/03/25 21:00:29;;;;;;;121.60;100.62;;;21.00;45.00;;;;;;4789592;55;21089;-27
2021/03/25 21:05:32;;;;;;;;;;;21.00;44.90;;;;;;4748098;55;21034;-32
2021/03/25 21:10:34;;;;;;;123.95;100.05;;;21.00;44.70;;;;;;4741541;55;20076;-28
2021/03/25 21:15:39;;;;;;;122.93;101.00;;;21.00;44.90;;;;;;4762893;55;21030;-26
2021/03/25 21:20:43;;;;;;;127.03;102.28;;;20.90;44.80;;;;;;4837287;55;20986;-16
2021/03/25 21:25:45;;;;;;;127.68;102.57;;;20.90;44.80;;;;;;4755808;55;21089;-25
2021/03/25 21:30:48;;;;;;;123.22;99.53;;;20.90;44.80;;;;;;4738056;59;21022;-31
2021/03/25 21:35:50;;;;;;;117.40;96.18;;;21.00;44.80;;;;;;4831517;55;21488;-23
2021/03/25 21:40:53;;;;;;;120.47;98.47;;;20.90;44.70;;;;;;4749949;55;21049;-28
2021/03/25 21:45:57;;;;;;;119.72;97.18;;;20.90;44.70;;;;;;4743180;55;20994;-23
2021/03/25 21:51:01;;;;;;;122.50;98.65;;;20.90;44.70;;;;;;4737877;59;21507;-22
2021/03/25 21:56:06;;;;;;;118.00;96.03;;;20.90;44.70;;;;;;4753460;55;21018;-16
2021/03/25 22:01:08;;;;;;;120.75;99.78;;;20.90;44.60;;;;;;4779877;55;20994;-32
2021/03/25 22:06:09;;;;;;;116.10;94.18;;;20.90;44.60;;;;;;4738297;59;21069;-25
2021/03/25 22:11:10;;;;;;;118.00;96.72;;;20.90;44.60;;;;;;4738551;59;22247;-22
2021/03/25 22:16:11;;;;;;;119.80;95.93;;;20.90;44.60;;;;;;4768944;55;21537;-23
2021/03/25 22:21:14;;;;;;;124.80;97.55;;;20.90;44.60;;;;;;4782810;55;21022;-21
2021/03/25 22:26:15;;;;;;;116.97;94.75;;;20.90;44.50;;;;;;4779242;55;21029;-15
2021/03/25 22:31:17;;;;;;;114.22;92.28;;;20.90;44.50;;;;;;4748738;55;21488;-18
2021/03/25 22:36:18;;;;;;;114.97;94.13;;;20.90;44.50;;;;;;4755636;55;21069;-21
2021/03/25 22:41:20;;;;;;;116.88;93.28;;;20.90;44.50;;;;;;4774529;55;21578;-30
2021/03/25 22:46:21;;;;;;;116.60;94.35;;;20.80;44.40;;;;;;4738457;59;21500;-21
2021/03/25 22:51:22;;;;;;;119.47;93.62;;;20.90;44.40;;;;;;4750558;55;21034;-31
2021/03/25 22:56:23;;;;;;;116.62;94.50;;;20.90;44.40;;;;;;4737063;59;21057;-31
2021/03/25 23:01:39;;;;;;;116.55;90.82;;;20.90;44.30;;;;;;4791143;55;21484;-25
2021/03/25 23:06:44;;;;;;;113.20;90.43;;;20.90;44.30;;;;;;4804368;55;21519;-27
2021/03/25 23:11:50;;;;;;;115.20;91.57;;;20.80;44.20;;;;;;4760280;55;21089;-22
2021/03/25 23:16:52;;;;;;;116.22;91.70;;;20.80;44.20;;;;;;4769976;55;21097;-18
2021/03/25 23:22:17;;;;;;;113.35;89.82;;;20.80;44.10;;;;;;4738317;55;21005;-27
2021/03/25 23:27:20;;;;;;;109.68;87.37;;;20.80;44.10;;;;;;4800403;55;21531;-25
2021/03/25 23:32:27;;;;;;;110.47;88.35;;;20.80;44.10;;;;;;4777152;55;21120;-24
2021/03/25 23:37:27;;;;;;;109.10;89.13;;;20.80;44.10;;;;;;4738297;55;21014;-20
2021/03/25 23:42:30;;;;;;;112.30;89.62;;;20.80;44.00;;;;;;4757761;55;21237;-22
2021/03/25 23:47:31;;;;;;;110.12;87.43;;;20.80;44.00;;;;;;4813671;55;21540;-15
2021/03/25 23:52:33;;;;;;;109.43;87.43;;;20.80;44.00;;;;;;4785577;55;21026;-23
2021/03/25 23:57:34;;;;;;;112.65;87.95;;;20.80;43.90;;;;;;4747332;55;21495;-14
